sensor_id;sensor_type;location;lat;lon;timestamp;pressure;altitude;pressure_sealevel;temperature;humidity
42847;BME280;75159;49.916;14.536;2024-02-23T00:00:35;94584.09;;;9.27;71.85
42847;BME280;75159;49.916;14.536;2024-02-23T00:11:16;94572.38;;;9.38;71.94
42847;BME280;75159;49.916;14.536;2024-02-23T00:21:38;94568.66;;;9.47;71.82
42847;BME280;75159;49.916;14.536;2024-02-23T00:32:03;94571.50;;;9.52;71.63
42847;BME280;75159;49.916;14.536;2024-02-23T00:42:24;94585.38;;;9.59;71.38
42847;BME280;75159;49.916;14.536;2024-02-23T00:52:45;94590.25;;;9.69;71.21
42847;BME280;75159;49.916;14.536;2024-02-23T01:03:06;94611.06;;;9.69;71.00
42847;BME280;75159;49.916;14.536;2024-02-23T01:13:27;94623.72;;;9.72;71.03
42847;BME280;75159;49.916;14.536;2024-02-23T01:23:48;94640.94;;;9.73;71.19
42847;BME280;75159;49.916;14.536;2024-02-23T01:34:09;94655.38;;;9.76;70.75
42847;BME280;75159;49.916;14.536;2024-02-23T01:44:30;94675.78;;;9.72;70.81
42847;BME280;75159;49.916;14.536;2024-02-23T01:54:51;94691.75;;;9.69;70.54
42847;BME280;75159;49.916;14.536;2024-02-23T02:05:12;94708.16;;;9.70;70.46
42847;BME280;75159;49.916;14.536;2024-02-23T02:15:34;94706.38;;;9.70;70.67
42847;BME280;75159;49.916;14.536;2024-02-23T02:25:57;94727.84;;;9.72;70.70
42847;BME280;75159;49.916;14.536;2024-02-23T02:36:18;94730.53;;;9.64;70.11
42847;BME280;75159;49.916;14.536;2024-02-23T02:46:39;94736.22;;;9.53;70.14
42847;BME280;75159;49.916;14.536;2024-02-23T02:57:00;94752.19;;;9.50;69.95
42847;BME280;75159;49.916;14.536;2024-02-23T03:07:21;94754.94;;;9.41;69.56
42847;BME280;75159;49.916;14.536;2024-02-23T03:17:42;94779.41;;;9.32;68.91
42847;BME280;75159;49.916;14.536;2024-02-23T03:28:03;94794.59;;;9.28;68.78
42847;BME280;75159;49.916;14.536;2024-02-23T03:38:24;94819.44;;;9.16;68.14
42847;BME280;75159;49.916;14.536;2024-02-23T03:48:46;94839.31;;;9.09;68.03
42847;BME280;75159;49.916;14.536;2024-02-23T03:59:08;94857.81;;;8.99;67.66
42847;BME280;75159;49.916;14.536;2024-02-23T04:09:30;94875.44;;;8.89;66.85
42847;BME280;75159;49.916;14.536;2024-02-23T04:19:50;94881.50;;;8.81;66.99
42847;BME280;75159;49.916;14.536;2024-02-23T04:30:12;94894.75;;;8.71;66.42
42847;BME280;75159;49.916;14.536;2024-02-23T04:40:33;94897.72;;;8.68;66.11
42847;BME280;75159;49.916;14.536;2024-02-23T04:50:54;94924.09;;;8.57;65.50
42847;BME280;75159;49.916;14.536;2024-02-23T05:01:14;94943.63;;;8.44;65.21
42847;BME280;75159;49.916;14.536;2024-02-23T05:11:36;94972.59;;;8.33;64.47
42847;BME280;75159;49.916;14.536;2024-02-23T05:21:56;94986.88;;;8.29;64.38
42847;BME280;75159;49.916;14.536;2024-02-23T05:32:17;95000.75;;;8.13;64.50
42847;BME280;75159;49.916;14.536;2024-02-23T05:42:39;94992.00;;;8.14;64.79
42847;BME280;75159;49.916;14.536;2024-02-23T05:53:00;95025.38;;;8.25;64.69
42847;BME280;75159;49.916;14.536;2024-02-23T06:03:21;95037.75;;;8.15;64.54
42847;BME280;75159;49.916;14.536;2024-02-23T06:13:42;95061.31;;;8.05;64.68
42847;BME280;75159;49.916;14.536;2024-02-23T06:24:03;95055.28;;;8.13;64.86
42847;BME280;75159;49.916;14.536;2024-02-23T06:34:25;95088.53;;;8.17;64.81
42847;BME280;75159;49.916;14.536;2024-02-23T06:44:46;95072.50;;;8.05;64.61
42847;BME280;75159;49.916;14.536;2024-02-23T06:55:07;95109.03;;;7.96;64.87
42847;BME280;75159;49.916;14.536;2024-02-23T07:05:30;95109.84;;;7.96;64.39
42847;BME280;75159;49.916;14.536;2024-02-23T07:15:52;95139.38;;;7.95;64.74
42847;BME280;75159;49.916;14.536;2024-02-23T07:26:13;95141.13;;;7.94;64.50
42847;BME280;75159;49.916;14.536;2024-02-23T07:36:34;95174.25;;;7.84;64.47
42847;BME280;75159;49.916;14.536;2024-02-23T07:46:55;95165.00;;;7.65;64.44
42847;BME280;75159;49.916;14.536;2024-02-23T07:57:16;95151.56;;;7.61;64.40
42847;BME280;75159;49.916;14.536;2024-02-23T08:07:38;95157.84;;;7.34;64.09
42847;BME280;75159;49.916;14.536;2024-02-23T08:17:59;95185.06;;;7.30;64.34
42847;BME280;75159;49.916;14.536;2024-02-23T08:28:19;95192.03;;;7.38;64.49
42847;BME280;75159;49.916;14.536;2024-02-23T08:38:40;95192.66;;;7.23;64.30
42847;BME280;75159;49.916;14.536;2024-02-23T08:49:01;95182.75;;;7.19;64.63
42847;BME280;75159;49.916;14.536;2024-02-23T08:59:22;95195.44;;;7.30;64.77
42847;BME280;75159;49.916;14.536;2024-02-23T09:09:43;95214.06;;;7.33;64.49
42847;BME280;75159;49.916;14.536;2024-02-23T09:20:05;95210.66;;;7.25;64.39
42847;BME280;75159;49.916;14.536;2024-02-23T09:30:26;95228.22;;;7.47;64.66
42847;BME280;75159;49.916;14.536;2024-02-23T09:40:47;95222.72;;;7.59;63.88
42847;BME280;75159;49.916;14.536;2024-02-23T09:51:10;95219.00;;;7.70;64.56
42847;BME280;75159;49.916;14.536;2024-02-23T10:01:32;95210.41;;;7.61;63.76
42847;BME280;75159;49.916;14.536;2024-02-23T10:11:57;95204.75;;;7.74;63.82
42847;BME280;75159;49.916;14.536;2024-02-23T10:22:18;95212.06;;;7.95;63.39
42847;BME280;75159;49.916;14.536;2024-02-23T10:32:42;95226.00;;;8.02;63.39
42847;BME280;75159;49.916;14.536;2024-02-23T10:43:05;95272.56;;;8.12;63.35
42847;BME280;75159;49.916;14.536;2024-02-23T10:53:28;95268.66;;;8.00;62.89
42847;BME280;75159;49.916;14.536;2024-02-23T11:03:51;95289.59;;;7.90;63.11
42847;BME280;75159;49.916;14.536;2024-02-23T11:14:13;95289.44;;;7.91;63.10
42847;BME280;75159;49.916;14.536;2024-02-23T11:24:34;95294.63;;;8.00;62.79
42847;BME280;75159;49.916;14.536;2024-02-23T11:34:56;95293.66;;;8.01;62.92
42847;BME280;75159;49.916;14.536;2024-02-23T11:45:17;95284.09;;;7.93;62.51
42847;BME280;75159;49.916;14.536;2024-02-23T11:55:38;95275.34;;;8.11;62.67
42847;BME280;75159;49.916;14.536;2024-02-23T12:06:01;95275.50;;;8.17;62.53
42847;BME280;75159;49.916;14.536;2024-02-23T12:16:22;95265.56;;;7.88;62.29
42847;BME280;75159;49.916;14.536;2024-02-23T12:26:43;95262.69;;;7.99;62.54
42847;BME280;75159;49.916;14.536;2024-02-23T12:37:04;95270.94;;;7.78;62.44
42847;BME280;75159;49.916;14.536;2024-02-23T12:47:26;95275.47;;;7.84;62.18
42847;BME280;75159;49.916;14.536;2024-02-23T12:57:46;95276.47;;;7.91;62.27
42847;BME280;75159;49.916;14.536;2024-02-23T13:08:07;95270.63;;;7.98;62.86
42847;BME280;75159;49.916;14.536;2024-02-23T13:18:28;95266.06;;;8.00;62.37
42847;BME280;75159;49.916;14.536;2024-02-23T13:28:49;95259.91;;;8.26;62.12
42847;BME280;75159;49.916;14.536;2024-02-23T13:39:10;95266.06;;;8.24;61.56
42847;BME280;75159;49.916;14.536;2024-02-23T13:49:31;95260.06;;;8.32;61.54
42847;BME280;75159;49.916;14.536;2024-02-23T13:59:52;95253.91;;;8.25;61.63
42847;BME280;75159;49.916;14.536;2024-02-23T14:10:13;95246.59;;;8.12;61.60
42847;BME280;75159;49.916;14.536;2024-02-23T14:20:34;95236.22;;;8.12;62.00
42847;BME280;75159;49.916;14.536;2024-02-23T14:30:55;95229.25;;;8.21;61.88
42847;BME280;75159;49.916;14.536;2024-02-23T14:41:16;95245.63;;;8.63;61.20
42847;BME280;75159;49.916;14.536;2024-02-23T14:51:37;95255.38;;;8.36;61.26
42847;BME280;75159;49.916;14.536;2024-02-23T15:01:58;95247.69;;;8.84;61.67
42847;BME280;75159;49.916;14.536;2024-02-23T15:12:19;95223.06;;;8.55;61.06
42847;BME280;75159;49.916;14.536;2024-02-23T15:22:42;95228.59;;;8.60;61.34
42847;BME280;75159;49.916;14.536;2024-02-23T15:33:09;95199.94;;;8.77;61.58
42847;BME280;75159;49.916;14.536;2024-02-23T15:43:31;95237.50;;;8.66;60.95
42847;BME280;75159;49.916;14.536;2024-02-23T15:53:52;95216.09;;;8.39;60.83
42847;BME280;75159;49.916;14.536;2024-02-23T16:04:13;95226.44;;;8.47;60.78
42847;BME280;75159;49.916;14.536;2024-02-23T16:14:34;95226.59;;;8.62;61.42
42847;BME280;75159;49.916;14.536;2024-02-23T16:24:55;95256.47;;;8.75;61.35
42847;BME280;75159;49.916;14.536;2024-02-23T16:35:16;95274.53;;;8.60;61.65
42847;BME280;75159;49.916;14.536;2024-02-23T16:45:39;95264.31;;;8.58;61.25
42847;BME280;75159;49.916;14.536;2024-02-23T16:56:00;95266.09;;;8.66;61.99
42847;BME280;75159;49.916;14.536;2024-02-23T17:06:21;95257.47;;;8.41;61.25
42847;BME280;75159;49.916;14.536;2024-02-23T17:16:42;95259.28;;;8.15;61.73
42847;BME280;75159;49.916;14.536;2024-02-23T17:27:03;95253.75;;;8.18;61.89
42847;BME280;75159;49.916;14.536;2024-02-23T17:37:27;95262.03;;;8.05;61.71
42847;BME280;75159;49.916;14.536;2024-02-23T17:47:48;95266.91;;;8.00;61.66
42847;BME280;75159;49.916;14.536;2024-02-23T17:58:15;95251.16;;;8.18;61.95
42847;BME280;75159;49.916;14.536;2024-02-23T18:08:40;95248.91;;;8.07;61.86
42847;BME280;75159;49.916;14.536;2024-02-23T18:19:01;95252.94;;;8.01;62.08
42847;BME280;75159;49.916;14.536;2024-02-23T18:29:24;95228.75;;;8.17;62.46
42847;BME280;75159;49.916;14.536;2024-02-23T18:39:45;95220.47;;;8.22;61.87
42847;BME280;75159;49.916;14.536;2024-02-23T18:50:06;95230.69;;;7.82;62.09
42847;BME280;75159;49.916;14.536;2024-02-23T19:00:28;95248.44;;;7.36;62.31
42847;BME280;75159;49.916;14.536;2024-02-23T19:10:49;95266.69;;;7.09;62.68
42847;BME280;75159;49.916;14.536;2024-02-23T19:21:10;95249.69;;;7.23;63.27
42847;BME280;75159;49.916;14.536;2024-02-23T19:31:31;95245.34;;;7.24;63.53
42847;BME280;75159;49.916;14.536;2024-02-23T19:41:52;95248.97;;;7.05;63.22
42847;BME280;75159;49.916;14.536;2024-02-23T19:52:12;95221.22;;;6.89;63.44
42847;BME280;75159;49.916;14.536;2024-02-23T20:02:34;95221.88;;;6.91;63.83
42847;BME280;75159;49.916;14.536;2024-02-23T20:12:56;95206.03;;;7.02;64.07
42847;BME280;75159;49.916;14.536;2024-02-23T20:23:18;95207.78;;;6.93;64.28
42847;BME280;75159;49.916;14.536;2024-02-23T20:33:39;95229.03;;;7.56;64.89
42847;BME280;75159;49.916;14.536;2024-02-23T20:44:01;95217.66;;;7.32;64.38
42847;BME280;75159;49.916;14.536;2024-02-23T20:54:22;95220.31;;;7.06;64.42
42847;BME280;75159;49.916;14.536;2024-02-23T21:04:43;95213.75;;;6.85;64.72
42847;BME280;75159;49.916;14.536;2024-02-23T21:15:05;95210.38;;;6.93;65.24
42847;BME280;75159;49.916;14.536;2024-02-23T21:25:26;95202.72;;;6.83;64.95
42847;BME280;75159;49.916;14.536;2024-02-23T21:35:47;95199.75;;;6.70;65.23
42847;BME280;75159;49.916;14.536;2024-02-23T21:46:08;95196.19;;;6.63;65.46
42847;BME280;75159;49.916;14.536;2024-02-23T21:56:32;95217.56;;;6.65;65.59
42847;BME280;75159;49.916;14.536;2024-02-23T22:06:53;95194.69;;;6.60;65.57
42847;BME280;75159;49.916;14.536;2024-02-23T22:17:15;95201.19;;;6.64;65.69
42847;BME280;75159;49.916;14.536;2024-02-23T22:27:36;95219.22;;;6.48;65.50
42847;BME280;75159;49.916;14.536;2024-02-23T22:37:56;95213.38;;;6.46;65.81
42847;BME280;75159;49.916;14.536;2024-02-23T22:48:18;95206.81;;;6.25;65.65
42847;BME280;75159;49.916;14.536;2024-02-23T22:58:39;95232.22;;;6.30;66.06
42847;BME280;75159;49.916;14.536;2024-02-23T23:09:00;95240.13;;;6.28;65.73
42847;BME280;75159;49.916;14.536;2024-02-23T23:19:21;95246.38;;;6.17;66.00
42847;BME280;75159;49.916;14.536;2024-02-23T23:29:42;95231.47;;;6.37;66.52
42847;BME280;75159;49.916;14.536;2024-02-23T23:40:04;95244.66;;;6.52;66.17
42847;BME280;75159;49.916;14.536;2024-02-23T23:50:25;95232.22;;;6.30;66.02
